^^
Your Local Weather - Clay, NY Station Historical Data
Daily Summary for August 21, 2017 Units:  English    Metric   Both
« Previous Day
Next Day »
Daily Weekly Monthly Yearly Custom
  High: Low: Average:
Temperature: 85.3 °F 58.9 °F 71.9 °F
Dew Point: 70.0 °F 57.2 °F 63.2 °F
Humidity: 95% 46% 77%
Wind Speed: 4.0mph 0.0mph 0.6mph
Wind Gust: 9.0mph - -
Wind- - SW
Pressure: 30.10 in 29.97 in -
Precipitation: 0.00 in    
Historical Graphs
 
 
Tabular Data for August 21, 2017
Time Temperature Dew Point Pressure Wind Wind Speed Wind Gust Humidity Rainfall Rate (Hourly) solar
00:00 63.6 °F 60.9 °F 30.08 in Calm     91% 0.00 in 0 W/m2
00:06 63.6 °F 61.2 °F 30.08 in Calm     92% 0.00 in 0 W/m2
00:10 63.5 °F 61.1 °F 30.08 in Calm     92% 0.00 in 0 W/m2
00:16 63.4 °F 61.0 °F 30.08 in Calm     92% 0.00 in 0 W/m2
00:22 63.4 °F 61.0 °F 30.08 in Calm     92% 0.00 in 0 W/m2
00:28 63.4 °F 61.0 °F 30.08 in Calm     92% 0.00 in 0 W/m2
00:34 63.4 °F 61.0 °F 30.08 in Calm     92% 0.00 in 0 W/m2
00:40 63.4 °F 61.0 °F 30.08 in Calm     92% 0.00 in 0 W/m2
00:46 63.5 °F 61.1 °F 30.08 in Calm     92% 0.00 in 0 W/m2
00:52 63.4 °F 61.0 °F 30.08 in Calm     92% 0.00 in 0 W/m2
00:58 63.3 °F 60.9 °F 30.08 in Calm     92% 0.00 in 0 W/m2
01:04 63.3 °F 60.9 °F 30.08 in Calm     92% 0.00 in 0 W/m2
01:10 63.1 °F 60.7 °F 30.08 in Calm     92% 0.00 in 0 W/m2
01:16 62.9 °F 60.5 °F 30.08 in Calm     92% 0.00 in 0 W/m2
01:22 62.8 °F 60.7 °F 30.08 in Calm     93% 0.00 in 0 W/m2
01:28 62.8 °F 60.7 °F 30.08 in Calm     93% 0.00 in 0 W/m2
01:34 62.6 °F 60.5 °F 30.08 in Calm     93% 0.00 in 0 W/m2
01:40 62.4 °F 60.0 °F 30.08 in Calm     92% 0.00 in 0 W/m2
01:46 62.2 °F 60.2 °F 30.08 in Calm     93% 0.00 in 0 W/m2
01:52 62.1 °F 60.1 °F 30.08 in Calm     93% 0.00 in 0 W/m2
01:58 62.2 °F 60.2 °F 30.08 in Calm     93% 0.00 in 0 W/m2
02:04 62.4 °F 60.3 °F 30.08 in Calm     93% 0.00 in 0 W/m2
02:10 62.3 °F 60.2 °F 30.08 in Calm     93% 0.00 in 0 W/m2
02:16 62.2 °F 60.2 °F 30.08 in Calm     93% 0.00 in 0 W/m2
02:22 62.0 °F 60.0 °F 30.08 in Calm     93% 0.00 in 0 W/m2
02:28 61.8 °F 59.8 °F 30.08 in Calm     93% 0.00 in 0 W/m2
02:34 61.6 °F 59.6 °F 30.08 in Calm     93% 0.00 in 0 W/m2
02:40 61.5 °F 59.5 °F 30.08 in Calm     93% 0.00 in 0 W/m2
02:46 61.4 °F 59.4 °F 30.08 in Calm     93% 0.00 in 0 W/m2
02:52 61.3 °F 59.3 °F 30.08 in Calm     93% 0.00 in 0 W/m2
02:58 61.4 °F 59.4 °F 30.08 in Calm     93% 0.00 in 0 W/m2
03:04 61.4 °F 59.4 °F 30.08 in Calm     93% 0.00 in 0 W/m2
03:10 61.2 °F 59.2 °F 30.08 in Calm     93% 0.00 in 0 W/m2
03:16 61.1 °F 59.1 °F 30.08 in Calm     93% 0.00 in 0 W/m2
03:22 61.1 °F 59.1 °F 30.08 in Calm     93% 0.00 in 0 W/m2
03:28 61.0 °F 59.0 °F 30.08 in Calm     93% 0.00 in 0 W/m2
03:34 60.9 °F 58.9 °F 30.09 in Calm     93% 0.00 in 0 W/m2
03:40 60.8 °F 58.8 °F 30.09 in Calm     93% 0.00 in 0 W/m2
03:46 60.8 °F 58.8 °F 30.08 in Calm     93% 0.00 in 0 W/m2
03:52 60.9 °F 58.9 °F 30.08 in Calm     93% 0.00 in 0 W/m2
03:58 61.0 °F 59.3 °F 30.08 in Calm     94% 0.00 in 0 W/m2
04:04 61.0 °F 59.3 °F 30.08 in Calm     94% 0.00 in 0 W/m2
04:10 60.9 °F 59.2 °F 30.08 in Calm     94% 0.00 in 0 W/m2
04:16 60.7 °F 59.0 °F 30.08 in Calm     94% 0.00 in 0 W/m2
04:22 60.4 °F 58.7 °F 30.08 in Calm     94% 0.00 in 0 W/m2
04:28 60.2 °F 58.5 °F 30.08 in Calm     94% 0.00 in 0 W/m2
04:34 60.0 °F 58.3 °F 30.09 in Calm     94% 0.00 in 0 W/m2
04:40 59.8 °F 58.1 °F 30.09 in Calm     94% 0.00 in 0 W/m2
04:46 59.6 °F 57.9 °F 30.09 in Calm     94% 0.00 in 0 W/m2
04:52 59.5 °F 57.8 °F 30.09 in Calm     94% 0.00 in 0 W/m2
04:58 59.4 °F 57.7 °F 30.09 in Calm     94% 0.00 in 0 W/m2
05:04 59.2 °F 57.5 °F 30.09 in Calm     94% 0.00 in 0 W/m2
05:10 59.0 °F 57.3 °F 30.09 in Calm     94% 0.00 in 0 W/m2
05:16 58.9 °F 57.2 °F 30.09 in Calm     94% 0.00 in 0 W/m2
05:24 59.1 °F 57.4 °F 30.08 in Calm     94% 0.00 in 0 W/m2
05:30 59.2 °F 57.5 °F 30.09 in Calm     94% 0.00 in 0 W/m2
05:36 59.1 °F 57.4 °F 30.09 in Calm     94% 0.00 in 0 W/m2
05:42 59.4 °F 57.7 °F 30.08 in Calm     94% 0.00 in 0 W/m2
05:48 59.5 °F 57.8 °F 30.09 in Calm     94% 0.00 in 0 W/m2
05:54 59.3 °F 57.6 °F 30.09 in Calm     94% 0.00 in 0 W/m2
06:00 59.2 °F 57.5 °F 30.09 in Calm     94% 0.00 in 0 W/m2
06:06 59.3 °F 57.6 °F 30.09 in Calm     94% 0.00 in 0 W/m2
06:12 59.2 °F 57.5 °F 30.09 in Calm     94% 0.00 in 0 W/m2
06:18 59.2 °F 57.5 °F 30.09 in Calm     94% 0.00 in 0 W/m2
06:24 59.1 °F 57.4 °F 30.09 in Calm     94% 0.00 in 7 W/m2
06:30 59.3 °F 57.6 °F 30.08 in Calm     94% 0.00 in 14 W/m2
06:36 59.5 °F 57.8 °F 30.08 in Calm     94% 0.00 in 21 W/m2
06:42 59.5 °F 57.8 °F 30.09 in Calm     94% 0.00 in 28 W/m2
06:48 59.6 °F 57.9 °F 30.09 in Calm     94% 0.00 in 33 W/m2
06:54 60.0 °F 58.3 °F 30.09 in Calm     94% 0.00 in 44 W/m2
07:00 60.2 °F 58.5 °F 30.09 in Calm     94% 0.00 in 51 W/m2
07:06 60.6 °F 59.2 °F 30.09 in Calm     95% 0.00 in 63 W/m2
07:12 60.9 °F 59.2 °F 30.10 in Calm     94% 0.00 in 86 W/m2
07:18 61.6 °F 60.2 °F 30.10 in Calm     95% 0.00 in 121 W/m2
07:24 62.2 °F 60.8 °F 30.10 in Calm   1.0 mph 95% 0.00 in 84 W/m2
07:30 62.3 °F 60.8 °F 30.10 in Calm     95% 0.00 in 95 W/m2
07:36 62.6 °F 61.1 °F 30.10 in Calm     95% 0.00 in 128 W/m2
07:42 62.8 °F 61.3 °F 30.10 in Calm     95% 0.00 in 130 W/m2
07:48 63.1 °F 61.6 °F 30.10 in Calm   2.0 mph 95% 0.00 in 118 W/m2
07:54 63.4 °F 61.9 °F 30.10 in Calm     95% 0.00 in 93 W/m2
08:00 63.6 °F 62.1 °F 30.10 in Calm     95% 0.00 in 149 W/m2
08:06 64.1 °F 62.6 °F 30.10 in Calm     95% 0.00 in 183 W/m2
08:12 64.4 °F 62.9 °F 30.10 in Calm   1.0 mph 95% 0.00 in 128 W/m2
08:18 64.7 °F 62.9 °F 30.10 in Calm   1.0 mph 94% 0.00 in 109 W/m2
08:24 64.8 °F 63.0 °F 30.10 in Calm     94% 0.00 in 105 W/m2
08:30 65.1 °F 63.3 °F 30.09 in Calm     94% 0.00 in 118 W/m2
08:36 65.5 °F 63.7 °F 30.09 in Calm     94% 0.00 in 84 W/m2
08:42 65.8 °F 63.4 °F 30.08 in Calm   3.0 mph 92% 0.00 in 162 W/m2
08:48 66.3 °F 63.6 °F 30.08 in Calm   3.0 mph 91% 0.00 in 107 W/m2
08:54 67.0 °F 63.6 °F 30.08 in Calm   1.0 mph 89% 0.00 in 209 W/m2
09:00 67.8 °F 63.1 °F 30.08 in SE 1.0 mph 1.0 mph 85% 0.00 in 116 W/m2
09:06 68.5 °F 63.1 °F 30.08 in SE 1.0 mph 2.0 mph 83% 0.00 in 142 W/m2
09:12 69.2 °F 63.1 °F 30.08 in Calm   2.0 mph 81% 0.00 in 185 W/m2
09:18 69.6 °F 63.2 °F 30.09 in SE 1.0 mph 2.0 mph 80% 0.00 in 207 W/m2
09:24 70.0 °F 63.2 °F 30.09 in SE 1.0 mph 1.0 mph 79% 0.00 in 236 W/m2
09:30 70.6 °F 63.4 °F 30.08 in Calm     78% 0.00 in 348 W/m2
09:36 70.8 °F 63.6 °F 30.09 in ESE 1.0 mph 2.0 mph 78% 0.00 in 221 W/m2
09:42 71.2 °F 64.0 °F 30.09 in ESE 1.0 mph 1.0 mph 78% 0.00 in 236 W/m2
09:48 71.5 °F 64.6 °F 30.09 in Calm   1.0 mph 79% 0.00 in 304 W/m2
09:54 71.8 °F 64.2 °F 30.09 in Calm   2.0 mph 77% 0.00 in 272 W/m2
10:00 72.3 °F 65.1 °F 30.09 in Calm   3.0 mph 78% 0.00 in 221 W/m2
10:06 72.5 °F 64.9 °F 30.09 in NE 1.0 mph 3.0 mph 77% 0.00 in 584 W/m2
10:12 73.2 °F 64.4 °F 30.09 in Calm     74% 0.00 in 564 W/m2
10:18 74.1 °F 64.9 °F 30.08 in East 1.0 mph 2.0 mph 73% 0.00 in 478 W/m2
10:24 74.2 °F 65.0 °F 30.08 in ENE 1.0 mph 2.0 mph 73% 0.00 in 336 W/m2
10:30 75.2 °F 65.6 °F 30.08 in Calm   2.0 mph 72% 0.00 in 737 W/m2
10:36 76.2 °F 65.7 °F 30.07 in SE 1.0 mph 2.0 mph 70% 0.00 in 680 W/m2
10:42 76.4 °F 65.9 °F 30.07 in ESE 1.0 mph 1.0 mph 70% 0.00 in 737 W/m2
10:48 77.3 °F 66.3 °F 30.07 in SSE 1.0 mph 3.0 mph 69% 0.00 in 731 W/m2
10:54 78.3 °F 65.6 °F 30.06 in SSE 1.0 mph 4.0 mph 65% 0.00 in 751 W/m2
11:00 78.3 °F 66.4 °F 30.06 in South 3.0 mph 3.0 mph 67% 0.00 in 772 W/m2
11:06 78.7 °F 65.9 °F 30.06 in South 3.0 mph 6.0 mph 65% 0.00 in 768 W/m2
11:12 79.7 °F 65.1 °F 30.07 in SSE 4.0 mph 4.0 mph 61% 0.00 in 773 W/m2
11:18 80.3 °F 64.7 °F 30.06 in SE 4.0 mph 5.0 mph 59% 0.00 in 779 W/m2
11:24 80.8 °F 63.1 °F 30.06 in South 4.0 mph 4.0 mph 55% 0.00 in 775 W/m2
11:30 81.6 °F 62.3 °F 30.07 in South 3.0 mph 5.0 mph 52% 0.00 in 780 W/m2
11:36 81.4 °F 63.7 °F 30.07 in WSW 3.0 mph 5.0 mph 55% 0.00 in 780 W/m2
11:42 81.5 °F 64.8 °F 30.07 in SW 3.0 mph 4.0 mph 57% 0.00 in 782 W/m2
11:48 81.8 °F 63.0 °F 30.06 in SSW 2.0 mph 4.0 mph 53% 0.00 in 789 W/m2
11:54 81.6 °F 61.7 °F 30.06 in South 3.0 mph 4.0 mph 51% 0.00 in 800 W/m2
12:00 81.9 °F 63.1 °F 30.06 in West 3.0 mph 3.0 mph 53% 0.00 in 803 W/m2
12:06 82.6 °F 63.2 °F 30.06 in SSW 2.0 mph 3.0 mph 52% 0.00 in 810 W/m2
12:12 83.1 °F 64.7 °F 30.06 in WSW 1.0 mph 3.0 mph 54% 0.00 in 817 W/m2
12:18 82.9 °F 62.9 °F 30.06 in WSW 1.0 mph 4.0 mph 51% 0.00 in 828 W/m2
12:24 82.8 °F 63.9 °F 30.06 in SW 2.0 mph 4.0 mph 53% 0.00 in 833 W/m2
12:30 83.3 °F 63.3 °F 30.06 in WSW 3.0 mph 3.0 mph 51% 0.00 in 884 W/m2
12:36 83.8 °F 63.7 °F 30.06 in SW 2.0 mph 3.0 mph 51% 0.00 in 844 W/m2
12:42 84.1 °F 64.0 °F 30.05 in WSW 2.0 mph 9.0 mph 51% 0.00 in 831 W/m2
12:46 83.6 °F 64.7 °F 30.05 in SW 2.0 mph 9.0 mph 53% 0.00 in 824 W/m2
12:52 82.7 °F 61.6 °F 30.05 in SW 3.0 mph 3.0 mph 49% 0.00 in 814 W/m2
12:58 83.8 °F 64.8 °F 30.05 in WNW 2.0 mph 3.0 mph 53% 0.00 in 819 W/m2
13:04 84.3 °F 64.8 °F 30.05 in WNW 1.0 mph 2.0 mph 52% 0.00 in 817 W/m2
13:10 84.7 °F 66.2 °F 30.05 in NW 1.0 mph 1.0 mph 54% 0.00 in 830 W/m2
13:16 84.9 °F 66.4 °F 30.05 in NNW 1.0 mph 2.0 mph 54% 0.00 in 830 W/m2
13:22 84.7 °F 65.1 °F 30.04 in WSW 1.0 mph 2.0 mph 52% 0.00 in 823 W/m2
13:28 84.7 °F 62.8 °F 30.04 in WSW 1.0 mph 2.0 mph 48% 0.00 in 793 W/m2
13:34 84.5 °F 62.1 °F 30.04 in SW 2.0 mph 4.0 mph 47% 0.00 in 752 W/m2
13:40 84.7 °F 64.6 °F 30.03 in WSW 2.0 mph 2.0 mph 51% 0.00 in 705 W/m2
13:46 85.3 °F 65.1 °F 30.03 in Calm   2.0 mph 51% 0.00 in 657 W/m2
13:52 84.6 °F 62.1 °F 30.03 in WNW 1.0 mph 1.0 mph 47% 0.00 in 592 W/m2
13:58 84.3 °F 63.6 °F 30.03 in WNW 2.0 mph 4.0 mph 50% 0.00 in 531 W/m2
14:04 84.4 °F 63.2 °F 30.03 in WNW 1.0 mph 1.0 mph 49% 0.00 in 464 W/m2
14:12 84.1 °F 62.3 °F 30.02 in West 1.0 mph 2.0 mph 48% 0.00 in 397 W/m2
14:18 83.8 °F 60.8 °F 30.02 in SW 1.0 mph 3.0 mph 46% 0.00 in 346 W/m2
14:24 83.4 °F 60.4 °F 30.02 in WSW 2.0 mph 4.0 mph 46% 0.00 in 287 W/m2
14:30 83.1 °F 63.1 °F 30.02 in WSW 2.0 mph 2.0 mph 51% 0.00 in 251 W/m2
14:36 82.9 °F 62.4 °F 30.02 in WSW 1.0 mph 2.0 mph 50% 0.00 in 230 W/m2
14:42 82.7 °F 63.3 °F 30.01 in Calm   2.0 mph 52% 0.00 in 230 W/m2
14:48 82.6 °F 63.2 °F 30.02 in Calm   2.0 mph 52% 0.00 in 251 W/m2
14:54 82.7 °F 62.7 °F 30.02 in Calm   1.0 mph 51% 0.00 in 281 W/m2
15:00 82.7 °F 64.4 °F 30.02 in WSW 1.0 mph 1.0 mph 54% 0.00 in 325 W/m2
15:06 82.8 °F 63.9 °F 30.02 in Calm   2.0 mph 53% 0.00 in 373 W/m2
15:12 83.2 °F 64.3 °F 30.02 in WSW 1.0 mph 2.0 mph 53% 0.00 in 311 W/m2
15:18 83.5 °F 64.6 °F 30.01 in WSW 1.0 mph 3.0 mph 53% 0.00 in 475 W/m2
15:24 83.7 °F 65.3 °F 30.01 in SW 1.0 mph 2.0 mph 54% 0.00 in 515 W/m2
15:30 84.0 °F 63.9 °F 30.01 in SSW 2.0 mph 5.0 mph 51% 0.00 in 485 W/m2
15:36 84.0 °F 63.9 °F 30.01 in WSW 3.0 mph 5.0 mph 51% 0.00 in 473 W/m2
15:42 84.0 °F 62.8 °F 30.01 in SSW 1.0 mph 2.0 mph 49% 0.00 in 575 W/m2
15:48 84.1 °F 62.9 °F 30.01 in SW 2.0 mph 3.0 mph 49% 0.00 in 645 W/m2
15:54 84.6 °F 62.1 °F 30.00 in WSW 2.0 mph 3.0 mph 47% 0.00 in 617 W/m2
16:00 85.2 °F 63.3 °F 30.00 in SSW 2.0 mph 4.0 mph 48% 0.00 in 606 W/m2
16:06 85.1 °F 63.2 °F 30.00 in South 3.0 mph 4.0 mph 48% 0.00 in 594 W/m2
16:12 85.0 °F 63.7 °F 30.00 in SSW 3.0 mph 4.0 mph 49% 0.00 in 596 W/m2
16:18 84.6 °F 62.7 °F 30.00 in SE 4.0 mph 5.0 mph 48% 0.00 in 603 W/m2
16:24 84.1 °F 64.0 °F 30.00 in SW 4.0 mph 6.0 mph 51% 0.00 in 362 W/m2
16:30 84.7 °F 65.1 °F 30.00 in West 3.0 mph 3.0 mph 52% 0.00 in 663 W/m2
16:36 84.9 °F 65.9 °F 30.00 in SW 2.0 mph 4.0 mph 53% 0.00 in 580 W/m2
16:42 83.7 °F 64.8 °F 30.00 in WSW 3.0 mph 3.0 mph 53% 0.00 in 186 W/m2
16:48 83.0 °F 65.2 °F 30.00 in WSW 3.0 mph 4.0 mph 55% 0.00 in 156 W/m2
16:54 82.9 °F 66.1 °F 30.00 in WSW 1.0 mph 2.0 mph 57% 0.00 in 156 W/m2
17:00 83.0 °F 67.7 °F 30.00 in Calm     60% 0.00 in 183 W/m2
17:06 83.4 °F 68.5 °F 30.00 in SW 1.0 mph 3.0 mph 61% 0.00 in 411 W/m2
17:12 83.6 °F 65.7 °F 30.00 in SW 1.0 mph 1.0 mph 55% 0.00 in 401 W/m2
17:18 83.6 °F 66.8 °F 30.00 in SW 1.0 mph 1.0 mph 57% 0.00 in 360 W/m2
17:24 83.8 °F 66.4 °F 29.99 in SW 1.0 mph 1.0 mph 56% 0.00 in 265 W/m2
17:30 83.9 °F 66.5 °F 29.99 in Calm     56% 0.00 in 98 W/m2
17:36 84.2 °F 66.8 °F 29.99 in Calm   1.0 mph 56% 0.00 in 79 W/m2
17:42 84.3 °F 66.4 °F 29.99 in Calm     55% 0.00 in 185 W/m2
17:48 84.0 °F 66.6 °F 29.99 in SW 1.0 mph 2.0 mph 56% 0.00 in 91 W/m2
17:54 83.7 °F 65.8 °F 29.99 in SW 1.0 mph 1.0 mph 55% 0.00 in 90 W/m2
18:00 83.5 °F 66.7 °F 29.98 in SW 1.0 mph 1.0 mph 57% 0.00 in 109 W/m2
18:06 83.4 °F 67.1 °F 29.98 in WNW 1.0 mph 1.0 mph 58% 0.00 in 70 W/m2
18:12 83.3 °F 67.5 °F 29.98 in Calm     59% 0.00 in 58 W/m2
18:18 83.1 °F 67.8 °F 29.98 in Calm     60% 0.00 in 56 W/m2
18:24 82.9 °F 67.1 °F 29.98 in Calm   3.0 mph 59% 0.00 in 53 W/m2
18:30 82.8 °F 66.5 °F 29.99 in SW 1.0 mph 1.0 mph 58% 0.00 in 53 W/m2
18:36 82.7 °F 67.9 °F 29.99 in SW 1.0 mph 2.0 mph 61% 0.00 in 47 W/m2
18:42 82.3 °F 66.5 °F 29.99 in SW 1.0 mph 1.0 mph 59% 0.00 in 35 W/m2
18:48 82.1 °F 66.8 °F 29.99 in Calm   3.0 mph 60% 0.00 in 35 W/m2
18:54 81.9 °F 67.1 °F 29.99 in Calm     61% 0.00 in 37 W/m2
19:00 81.6 °F 69.6 °F 29.99 in Calm     67% 0.00 in 33 W/m2
19:06 80.3 °F 70.0 °F 29.99 in Calm     71% 0.00 in 40 W/m2
19:12 78.9 °F 69.5 °F 29.99 in Calm     73% 0.00 in 44 W/m2
19:18 78.5 °F 69.9 °F 29.98 in Calm     75% 0.00 in 33 W/m2
19:24 78.2 °F 70.0 °F 29.98 in Calm     76% 0.00 in 26 W/m2
19:30 77.4 °F 68.9 °F 29.99 in Calm     75% 0.00 in 19 W/m2
19:36 76.8 °F 69.0 °F 29.98 in Calm     77% 0.00 in 18 W/m2
19:42 76.3 °F 69.7 °F 29.98 in Calm     80% 0.00 in 11 W/m2
19:48 75.8 °F 69.2 °F 29.98 in Calm     80% 0.00 in 5 W/m2
19:54 75.3 °F 68.7 °F 29.98 in Calm     80% 0.00 in 0 W/m2
20:00 75.0 °F 68.8 °F 29.98 in Calm     81% 0.00 in 0 W/m2
20:06 74.7 °F 68.5 °F 29.98 in Calm     81% 0.00 in 0 W/m2
20:12 74.3 °F 68.1 °F 29.98 in Calm     81% 0.00 in 0 W/m2
20:18 73.8 °F 67.6 °F 29.98 in Calm     81% 0.00 in 0 W/m2
20:24 73.4 °F 67.6 °F 29.98 in Calm     82% 0.00 in 0 W/m2
20:30 72.9 °F 67.4 °F 29.98 in Calm     83% 0.00 in 0 W/m2
20:36 72.7 °F 67.6 °F 29.99 in Calm     84% 0.00 in 0 W/m2
20:42 72.2 °F 67.1 °F 29.99 in Calm     84% 0.00 in 0 W/m2
20:48 71.9 °F 67.1 °F 29.99 in Calm     85% 0.00 in 0 W/m2
20:54 71.7 °F 67.3 °F 29.99 in Calm     86% 0.00 in 0 W/m2
21:00 71.5 °F 67.1 °F 29.99 in Calm     86% 0.00 in 0 W/m2
21:06 71.3 °F 66.9 °F 29.99 in Calm     86% 0.00 in 0 W/m2
21:12 71.0 °F 66.9 °F 29.98 in Calm     87% 0.00 in 0 W/m2
21:18 70.8 °F 66.7 °F 29.98 in Calm     87% 0.00 in 0 W/m2
21:24 70.4 °F 66.3 °F 29.98 in Calm   2.0 mph 87% 0.00 in 0 W/m2
21:30 70.3 °F 66.2 °F 29.99 in Calm     87% 0.00 in 0 W/m2
21:36 70.1 °F 66.4 °F 29.99 in Calm     88% 0.00 in 0 W/m2
21:42 70.0 °F 66.3 °F 29.99 in Calm     88% 0.00 in 0 W/m2
21:48 69.8 °F 66.1 °F 29.99 in Calm     88% 0.00 in 0 W/m2
21:56 69.6 °F 65.9 °F 29.99 in Calm     88% 0.00 in 0 W/m2
22:02 69.3 °F 65.6 °F 29.99 in Calm     88% 0.00 in 0 W/m2
22:08 69.2 °F 65.8 °F 29.98 in Calm     89% 0.00 in 0 W/m2
22:14 69.2 °F 65.8 °F 29.98 in Calm     89% 0.00 in 0 W/m2
22:20 69.1 °F 66.0 °F 29.98 in Calm     90% 0.00 in 0 W/m2
22:26 69.0 °F 65.6 °F 29.98 in Calm     89% 0.00 in 0 W/m2
22:32 69.0 °F 65.9 °F 29.98 in Calm     90% 0.00 in 0 W/m2
22:38 68.8 °F 65.7 °F 29.98 in Calm     90% 0.00 in 0 W/m2
22:44 68.7 °F 65.6 °F 29.98 in Calm     90% 0.00 in 0 W/m2
22:50 68.6 °F 65.5 °F 29.98 in Calm     90% 0.00 in 0 W/m2
22:56 68.5 °F 65.4 °F 29.98 in Calm     90% 0.00 in 0 W/m2
23:02 68.4 °F 65.4 °F 29.98 in Calm     90% 0.00 in 0 W/m2
23:10 68.3 °F 65.6 °F 29.98 in Calm     91% 0.00 in 0 W/m2
23:22 68.0 °F 65.3 °F 29.97 in Calm     91% 0.00 in 0 W/m2
23:28 67.9 °F 65.2 °F 29.97 in Calm     91% 0.00 in 0 W/m2
23:34 67.9 °F 65.2 °F 29.97 in Calm     91% 0.00 in 0 W/m2
23:40 67.8 °F 65.1 °F 29.97 in Calm     91% 0.00 in 0 W/m2
23:50 67.7 °F 65.0 °F 29.97 in Calm     91% 0.00 in 0 W/m2
23:56 67.5 °F 64.8 °F 29.97 in Calm     91% 0.00 in 0 W/m2
Country Meadow, Clay, NY, USA
Compliments of Weather Underground - 2 mb